createdAt,value
2023-04-29T00:01:04.229Z,7.03
2023-04-29T00:03:32.903Z,7.12
2023-04-29T00:06:00.684Z,7.08
2023-04-29T00:08:27.889Z,7.09
2023-04-29T00:10:54.718Z,7.12
2023-04-29T00:13:21.489Z,7.10
2023-04-29T00:15:48.253Z,7.00
2023-04-29T00:18:14.883Z,6.88
2023-04-29T00:20:42.248Z,6.68
2023-04-29T00:23:08.843Z,6.62
2023-04-29T00:25:36.077Z,6.65
2023-04-29T00:28:03.458Z,6.66
2023-04-29T00:30:30.278Z,6.61
2023-04-29T00:32:56.979Z,6.50
2023-04-29T00:35:23.641Z,6.36
2023-04-29T00:37:50.328Z,6.28
2023-04-29T00:40:17.513Z,6.21
2023-04-29T00:42:44.329Z,6.12
2023-04-29T00:45:11.724Z,5.96
2023-04-29T00:47:38.763Z,5.91
2023-04-29T00:50:06.204Z,5.88
2023-04-29T00:52:33.081Z,5.84
2023-04-29T00:55:00.227Z,5.94
2023-04-29T00:57:30.214Z,6.06
2023-04-29T01:00:00.348Z,6.04
2023-04-29T01:02:28.505Z,6.01
2023-04-29T01:04:55.775Z,6.11
2023-04-29T01:07:44.223Z,6.08
2023-04-29T01:10:20.185Z,6.07
2023-04-29T01:12:54.853Z,6.03
2023-04-29T01:15:22.951Z,6.03
2023-04-29T01:17:52.489Z,6.04
2023-04-29T01:20:19.613Z,5.91
2023-04-29T01:22:46.172Z,5.91
2023-04-29T01:25:13.130Z,5.92
2023-04-29T01:28:05.321Z,6.00
2023-04-29T01:30:38.000Z,5.98
2023-04-29T01:33:20.073Z,5.97
2023-04-29T01:35:55.720Z,5.96
2023-04-29T01:38:44.841Z,6.01
2023-04-29T01:41:31.839Z,6.00
2023-04-29T01:43:58.902Z,5.98
2023-04-29T01:46:25.565Z,5.95
2023-04-29T01:48:55.603Z,5.94
2023-04-29T01:51:22.287Z,5.97
2023-04-29T01:53:49.279Z,5.99
2023-04-29T01:56:16.175Z,5.93
2023-04-29T01:58:42.948Z,5.90
2023-04-29T02:01:10.541Z,5.87
2023-04-29T02:03:37.693Z,5.79
2023-04-29T02:06:06.987Z,5.81
2023-04-29T02:08:33.687Z,5.75
2023-04-29T02:11:00.560Z,5.69
2023-04-29T02:13:27.206Z,5.73
2023-04-29T02:15:53.832Z,5.65
2023-04-29T02:18:20.391Z,5.65
2023-04-29T02:20:47.015Z,5.57
2023-04-29T02:23:13.813Z,5.52
2023-04-29T02:25:40.426Z,5.43
2023-04-29T02:28:07.380Z,5.33
2023-04-29T02:30:34.041Z,5.30
2023-04-29T02:33:00.703Z,5.21
2023-04-29T02:35:27.465Z,5.23
2023-04-29T02:37:54.072Z,5.27
2023-04-29T02:40:21.630Z,5.20
2023-04-29T02:42:48.396Z,5.17
2023-04-29T02:45:15.218Z,5.20
2023-04-29T02:47:41.913Z,5.24
2023-04-29T02:50:08.946Z,5.30
2023-04-29T02:52:35.524Z,5.37
2023-04-29T02:55:02.690Z,5.31
2023-04-29T02:57:29.830Z,5.26
2023-04-29T02:59:56.824Z,5.25
2023-04-29T03:02:23.610Z,5.23
2023-04-29T03:04:50.240Z,5.16
2023-04-29T03:07:17.558Z,5.15
2023-04-29T03:09:44.002Z,5.10
2023-04-29T03:12:10.608Z,5.06
2023-04-29T03:14:37.238Z,4.97
2023-04-29T03:17:04.974Z,4.96
2023-04-29T03:19:31.826Z,4.93
2023-04-29T03:21:58.485Z,4.97
2023-04-29T03:24:25.157Z,4.93
2023-04-29T03:26:51.853Z,4.96
2023-04-29T03:29:18.439Z,4.87
2023-04-29T03:31:45.388Z,4.77
2023-04-29T03:34:12.052Z,4.73
2023-04-29T03:36:38.633Z,4.57
2023-04-29T03:39:05.345Z,4.48
2023-04-29T03:41:32.050Z,4.56
2023-04-29T03:44:00.932Z,4.58
2023-04-29T03:46:27.961Z,4.51
2023-04-29T03:48:56.182Z,4.55
2023-04-29T03:51:26.759Z,4.48
2023-04-29T03:53:56.336Z,4.53
2023-04-29T03:56:23.127Z,4.60
2023-04-29T03:58:49.863Z,4.69
2023-04-29T04:01:16.850Z,4.68
2023-04-29T04:03:43.638Z,4.73
2023-04-29T04:06:10.358Z,4.90
2023-04-29T04:08:36.917Z,4.99
2023-04-29T04:11:04.758Z,5.11
2023-04-29T04:13:31.408Z,5.05
2023-04-29T04:15:58.372Z,5.14
2023-04-29T04:18:25.130Z,5.31
2023-04-29T04:20:51.782Z,5.44
2023-04-29T04:23:18.443Z,5.54
2023-04-29T04:25:49.169Z,5.55
2023-04-29T04:28:15.925Z,5.58
2023-04-29T04:30:43.118Z,5.66
2023-04-29T04:33:10.783Z,5.80
2023-04-29T04:35:37.403Z,5.85
2023-04-29T04:38:04.075Z,5.93
2023-04-29T04:40:30.848Z,5.98
2023-04-29T04:42:57.463Z,5.95
2023-04-29T04:45:24.197Z,6.00
2023-04-29T04:47:50.929Z,6.07
2023-04-29T04:50:17.801Z,6.09
2023-04-29T04:52:44.424Z,6.09
2023-04-29T04:55:13.775Z,6.04
2023-04-29T04:57:41.753Z,6.06
2023-04-29T05:00:08.934Z,6.10
2023-04-29T05:02:36.094Z,6.16
2023-04-29T05:05:02.840Z,6.24
2023-04-29T05:07:29.468Z,6.29
2023-04-29T05:09:56.250Z,6.24
2023-04-29T05:12:23.598Z,6.29
2023-04-29T05:14:52.862Z,6.42
2023-04-29T05:17:19.665Z,6.44
2023-04-29T05:19:46.726Z,6.37
2023-04-29T05:22:13.491Z,6.30
2023-04-29T05:24:40.122Z,6.41
2023-04-29T05:27:06.938Z,6.50
2023-04-29T05:29:33.798Z,6.53
2023-04-29T05:32:00.491Z,6.63
2023-04-29T05:34:27.232Z,6.77
2023-04-29T05:36:54.078Z,6.85
2023-04-29T05:39:20.880Z,6.95
2023-04-29T05:41:47.465Z,6.99
2023-04-29T05:44:14.146Z,7.01
2023-04-29T05:46:40.832Z,7.23
2023-04-29T05:49:07.449Z,7.51
2023-04-29T05:51:34.042Z,7.68
2023-04-29T05:54:00.678Z,8.30
2023-04-29T05:56:27.297Z,8.68
2023-04-29T05:58:54.006Z,9.33
2023-04-29T06:01:20.571Z,10.18
2023-04-29T06:03:47.543Z,10.88
2023-04-29T06:06:14.503Z,11.54
2023-04-29T06:08:41.548Z,12.42
2023-04-29T06:11:08.285Z,13.03
2023-04-29T06:13:35.189Z,12.90
2023-04-29T06:16:01.930Z,13.34
2023-04-29T06:18:28.621Z,13.33
2023-04-29T06:20:55.206Z,13.32
2023-04-29T06:23:21.857Z,13.87
2023-04-29T06:25:49.116Z,13.65
2023-04-29T06:28:17.055Z,13.56
2023-04-29T06:30:43.704Z,13.51
2023-04-29T06:33:10.441Z,13.99
2023-04-29T06:35:40.658Z,14.35
2023-04-29T06:38:08.606Z,14.34
2023-04-29T06:40:35.689Z,14.44
2023-04-29T06:43:04.713Z,14.91
2023-04-29T06:45:31.796Z,14.62
2023-04-29T06:47:58.489Z,14.67
2023-04-29T06:50:26.080Z,15.17
2023-04-29T06:52:53.018Z,15.81
2023-04-29T06:55:19.732Z,16.30
2023-04-29T06:57:46.405Z,16.28
2023-04-29T07:00:13.352Z,16.06
2023-04-29T07:02:40.333Z,15.91
2023-04-29T07:05:07.629Z,15.93
2023-04-29T07:07:34.469Z,16.33
2023-04-29T07:10:01.190Z,16.16
2023-04-29T07:12:27.867Z,16.40
2023-04-29T07:14:54.573Z,16.46
2023-04-29T07:17:21.215Z,16.44
2023-04-29T07:19:47.888Z,16.51
2023-04-29T07:22:14.562Z,16.91
2023-04-29T07:24:41.617Z,17.03
2023-04-29T07:27:08.323Z,16.73
2023-04-29T07:29:34.960Z,17.19
2023-04-29T07:32:01.547Z,17.52
2023-04-29T07:34:28.140Z,17.21
2023-04-29T07:36:54.770Z,16.72
2023-04-29T07:39:22.062Z,17.15
2023-04-29T07:41:48.598Z,17.35
2023-04-29T07:44:15.428Z,17.54
2023-04-29T07:46:42.159Z,17.31
2023-04-29T07:49:09.049Z,17.30
2023-04-29T07:51:35.736Z,17.56
2023-04-29T07:54:02.409Z,17.28
2023-04-29T07:56:29.070Z,16.76
2023-04-29T07:58:55.784Z,16.76
2023-04-29T08:01:22.689Z,16.80
2023-04-29T08:03:49.651Z,17.35
2023-04-29T08:06:16.988Z,17.57
2023-04-29T08:08:44.104Z,17.27
2023-04-29T08:11:17.351Z,17.16
2023-04-29T08:13:44.114Z,17.13
2023-04-29T08:16:11.759Z,16.84
2023-04-29T08:18:38.504Z,16.67
2023-04-29T08:21:05.235Z,16.40
2023-04-29T08:23:32.636Z,16.69
2023-04-29T08:25:59.106Z,16.72
2023-04-29T08:28:25.977Z,16.72
2023-04-29T08:30:52.623Z,16.55
2023-04-29T08:33:19.314Z,16.45
2023-04-29T08:35:45.929Z,16.39
2023-04-29T08:38:12.510Z,16.31
2023-04-29T08:40:45.773Z,16.08
2023-04-29T08:43:14.009Z,16.04
2023-04-29T08:45:42.567Z,15.97
2023-04-29T08:48:10.127Z,15.93
2023-04-29T08:50:40.970Z,15.89
2023-04-29T08:53:11.777Z,15.94
2023-04-29T08:55:48.416Z,15.96
2023-04-29T08:58:16.241Z,15.93
2023-04-29T09:00:44.324Z,15.88
2023-04-29T09:03:29.564Z,15.74
2023-04-29T09:06:00.411Z,15.79
2023-04-29T09:08:27.816Z,15.78
2023-04-29T09:10:54.711Z,15.80
2023-04-29T09:13:29.120Z,15.79
2023-04-29T09:15:56.288Z,15.75
2023-04-29T09:18:48.871Z,15.75
2023-04-29T09:21:23.692Z,15.77
2023-04-29T09:23:53.839Z,15.81
2023-04-29T09:26:21.112Z,15.88
2023-04-29T09:28:49.817Z,15.90
2023-04-29T09:31:28.088Z,15.97
2023-04-29T09:33:57.628Z,16.01
2023-04-29T09:36:46.427Z,15.98
2023-04-29T09:39:23.470Z,15.76
2023-04-29T09:41:52.877Z,15.84
2023-04-29T09:44:22.447Z,15.87
2023-04-29T09:47:02.938Z,15.96
2023-04-29T09:49:35.908Z,16.07
2023-04-29T09:52:04.607Z,16.08
2023-04-29T09:54:33.262Z,16.08
2023-04-29T09:57:02.492Z,16.03
2023-04-29T09:59:29.081Z,16.05
2023-04-29T10:01:58.357Z,16.10
2023-04-29T10:04:27.077Z,16.02
2023-04-29T10:06:55.548Z,15.98
2023-04-29T10:09:23.623Z,16.02
2023-04-29T10:11:54.225Z,15.99
2023-04-29T10:14:23.174Z,15.93
2023-04-29T10:17:11.528Z,16.00
2023-04-29T10:19:59.399Z,15.94
2023-04-29T10:22:49.202Z,15.98
2023-04-29T10:25:18.370Z,15.99
2023-04-29T10:27:45.777Z,16.08
2023-04-29T10:30:14.002Z,16.08
2023-04-29T10:35:25.801Z,16.04
2023-04-29T10:37:54.349Z,16.00
2023-04-29T10:40:26.980Z,16.19
2023-04-29T10:42:54.839Z,16.20
2023-04-29T10:45:30.031Z,16.08
2023-04-29T10:48:09.168Z,16.13
2023-04-29T10:50:42.726Z,15.94
2023-04-29T10:53:09.354Z,15.90
2023-04-29T10:55:37.869Z,15.93
2023-04-29T10:58:05.644Z,15.82
2023-04-29T11:00:34.941Z,15.76
2023-04-29T11:03:03.015Z,15.88
2023-04-29T11:05:35.066Z,16.01
2023-04-29T11:08:13.086Z,15.93
2023-04-29T11:10:44.195Z,15.94
2023-04-29T11:13:31.142Z,16.04
2023-04-29T11:16:09.643Z,16.14
2023-04-29T11:18:56.925Z,16.10
2023-04-29T11:21:23.773Z,16.15
2023-04-29T11:23:52.280Z,16.33
2023-04-29T11:26:21.861Z,16.55
2023-04-29T11:28:48.657Z,16.61
2023-04-29T11:31:15.500Z,16.74
2023-04-29T11:33:42.237Z,16.94
2023-04-29T11:36:11.395Z,17.17
2023-04-29T11:38:41.300Z,17.30
2023-04-29T11:41:08.970Z,17.46
2023-04-29T11:43:35.667Z,17.64
2023-04-29T11:46:02.335Z,17.84
2023-04-29T11:48:30.413Z,18.02
2023-04-29T11:51:00.214Z,17.96
2023-04-29T11:53:28.112Z,17.84
2023-04-29T11:55:56.131Z,17.99
2023-04-29T11:58:23.982Z,18.03
2023-04-29T12:00:52.064Z,18.10
2023-04-29T12:03:21.200Z,18.00
2023-04-29T12:05:55.387Z,17.97
2023-04-29T12:08:26.966Z,17.90
2023-04-29T12:10:56.559Z,17.92
2023-04-29T12:13:26.020Z,17.83
2023-04-29T12:15:53.230Z,17.83
2023-04-29T12:18:23.358Z,17.92
2023-04-29T12:20:51.586Z,17.89
2023-04-29T12:23:24.315Z,17.80
2023-04-29T12:25:56.671Z,17.78
2023-04-29T12:28:23.914Z,17.88
2023-04-29T12:30:52.469Z,18.02
2023-04-29T12:33:27.678Z,18.02
2023-04-29T12:35:59.483Z,17.98
2023-04-29T12:38:32.530Z,17.89
2023-04-29T12:41:01.148Z,17.80
2023-04-29T12:43:33.799Z,17.37
2023-04-29T12:46:04.296Z,17.47
2023-04-29T12:48:33.547Z,17.54
2023-04-29T12:51:04.342Z,17.69
2023-04-29T12:53:31.553Z,17.79
2023-04-29T12:55:58.741Z,17.84
2023-04-29T12:58:28.654Z,17.91
2023-04-29T13:00:55.349Z,17.87
2023-04-29T13:03:22.487Z,17.93
2023-04-29T13:05:52.695Z,17.94
2023-04-29T13:08:19.813Z,17.92
2023-04-29T13:10:46.565Z,17.97
2023-04-29T13:13:13.328Z,17.98
2023-04-29T13:15:40.015Z,17.98
2023-04-29T13:18:06.906Z,18.04
2023-04-29T13:20:40.385Z,18.11
2023-04-29T13:23:08.692Z,18.12
2023-04-29T13:25:35.696Z,18.22
2023-04-29T13:28:02.832Z,18.22
2023-04-29T13:30:29.615Z,18.29
2023-04-29T13:33:01.271Z,18.23
2023-04-29T13:35:36.139Z,18.24
2023-04-29T13:38:02.842Z,18.21
2023-04-29T13:40:29.719Z,18.34
2023-04-29T13:43:04.867Z,18.40
2023-04-29T13:45:38.829Z,18.31
2023-04-29T13:48:17.010Z,18.16
2023-04-29T13:53:52.841Z,18.12
2023-04-29T13:59:31.609Z,18.07
2023-04-29T14:03:58.764Z,18.02
2023-04-29T14:06:25.682Z,18.02
2023-04-29T14:08:52.292Z,18.13
2023-04-29T14:11:19.706Z,18.23
2023-04-29T14:13:46.296Z,18.31
2023-04-29T14:16:13.014Z,18.40
2023-04-29T14:18:39.690Z,18.39
2023-04-29T14:21:06.416Z,18.43
2023-04-29T14:23:32.978Z,18.45
2023-04-29T14:26:11.577Z,18.43
2023-04-29T14:28:46.257Z,18.45
2023-04-29T14:31:13.884Z,18.50
2023-04-29T14:33:40.958Z,18.47
2023-04-29T14:36:08.140Z,18.49
2023-04-29T14:38:34.716Z,18.49
2023-04-29T14:41:01.370Z,18.64
2023-04-29T14:43:29.020Z,18.67
2023-04-29T14:45:56.145Z,18.68
2023-04-29T14:48:22.795Z,18.71
2023-04-29T14:50:49.676Z,18.70
2023-04-29T14:53:16.648Z,18.73
2023-04-29T14:55:43.436Z,18.86
2023-04-29T14:58:10.371Z,18.92
2023-04-29T15:00:37.069Z,18.95
2023-04-29T15:03:05.264Z,18.94
2023-04-29T15:05:32.122Z,18.97
2023-04-29T15:08:01.549Z,18.96
2023-04-29T15:10:28.674Z,19.00
2023-04-29T15:12:55.417Z,18.93
2023-04-29T15:15:23.298Z,18.75
2023-04-29T15:17:50.149Z,18.76
2023-04-29T15:20:16.858Z,18.76
2023-04-29T15:22:43.646Z,18.78
2023-04-29T15:25:10.484Z,18.79
2023-04-29T15:27:37.561Z,18.91
2023-04-29T15:30:05.994Z,18.86
2023-04-29T15:32:33.106Z,18.82
2023-04-29T15:35:00.585Z,18.67
2023-04-29T15:37:30.935Z,18.67
2023-04-29T15:40:00.959Z,18.60
2023-04-29T15:42:28.318Z,18.67
2023-04-29T15:44:54.929Z,18.75
2023-04-29T15:47:22.804Z,18.64
2023-04-29T15:49:52.826Z,18.76
2023-04-29T15:52:19.706Z,18.77
2023-04-29T15:54:46.544Z,18.82
2023-04-29T15:57:13.159Z,18.77
2023-04-29T15:59:39.791Z,18.73
2023-04-29T16:02:10.924Z,18.58
2023-04-29T16:04:39.259Z,18.53
2023-04-29T16:07:06.273Z,18.56
2023-04-29T16:09:34.143Z,18.54
2023-04-29T16:12:02.056Z,18.57
2023-04-29T16:14:30.101Z,18.62
2023-04-29T16:16:56.927Z,18.58
2023-04-29T16:19:23.659Z,18.58
2023-04-29T16:21:50.350Z,18.50
2023-04-29T16:24:16.990Z,18.43
2023-04-29T16:26:43.710Z,18.35
2023-04-29T16:29:12.536Z,18.33
2023-04-29T16:31:39.800Z,18.28
2023-04-29T16:34:06.547Z,18.23
2023-04-29T16:36:33.394Z,18.20
2023-04-29T16:39:00.184Z,18.16
2023-04-29T16:41:27.123Z,18.09
2023-04-29T16:43:54.411Z,18.11
2023-04-29T16:46:21.027Z,18.04
2023-04-29T16:48:47.826Z,17.95
2023-04-29T16:51:14.805Z,17.78
2023-04-29T16:53:41.452Z,17.74
2023-04-29T16:56:08.604Z,17.73
2023-04-29T16:58:35.253Z,17.69
2023-04-29T17:01:01.964Z,17.68
2023-04-29T17:03:29.614Z,17.63
2023-04-29T17:05:56.431Z,17.62
2023-04-29T17:08:24.343Z,17.62
2023-04-29T17:10:50.919Z,17.44
2023-04-29T17:13:17.620Z,17.39
2023-04-29T17:15:44.266Z,17.28
2023-04-29T17:18:10.889Z,17.21
2023-04-29T17:20:37.491Z,17.22
2023-04-29T17:23:04.182Z,17.15
2023-04-29T17:25:30.885Z,17.13
2023-04-29T17:27:57.503Z,17.05
2023-04-29T17:30:24.928Z,16.81
2023-04-29T17:32:51.528Z,16.73
2023-04-29T17:35:18.377Z,16.67
2023-04-29T17:37:45.167Z,16.57
2023-04-29T17:40:12.286Z,16.49
2023-04-29T17:42:39.068Z,16.43
2023-04-29T17:45:06.298Z,16.38
2023-04-29T17:47:32.969Z,16.19
2023-04-29T17:50:01.890Z,16.02
2023-04-29T17:52:29.410Z,15.92
2023-04-29T17:54:56.045Z,15.84
2023-04-29T17:57:22.995Z,15.76
2023-04-29T17:59:49.630Z,15.64
2023-04-29T18:02:16.546Z,15.67
2023-04-29T18:04:43.323Z,15.58
2023-04-29T18:07:10.101Z,15.57
2023-04-29T18:09:36.820Z,15.55
2023-04-29T18:12:05.296Z,15.51
2023-04-29T18:14:32.070Z,15.52
2023-04-29T18:17:02.037Z,15.48
2023-04-29T18:19:28.763Z,15.46
2023-04-29T18:21:58.384Z,15.45
2023-04-29T18:24:26.171Z,15.45
2023-04-29T18:26:52.880Z,15.41
2023-04-29T18:29:19.534Z,15.37
2023-04-29T18:31:46.362Z,15.30
2023-04-29T18:34:13.053Z,15.31
2023-04-29T18:36:39.786Z,15.37
2023-04-29T18:39:07.202Z,15.42
2023-04-29T18:41:33.679Z,15.43
2023-04-29T18:44:00.364Z,15.42
2023-04-29T18:46:29.760Z,15.49
2023-04-29T18:48:56.795Z,15.41
2023-04-29T18:51:23.741Z,15.41
2023-04-29T18:53:50.550Z,15.39
2023-04-29T18:56:17.183Z,15.35
2023-04-29T18:58:43.779Z,15.37
2023-04-29T19:01:10.479Z,15.18
2023-04-29T19:03:37.206Z,14.95
2023-04-29T19:06:04.128Z,14.92
2023-04-29T19:08:30.825Z,14.76
2023-04-29T19:10:59.968Z,14.60
2023-04-29T19:13:27.846Z,14.51
2023-04-29T19:15:55.227Z,14.41
2023-04-29T19:18:23.206Z,14.44
2023-04-29T19:20:50.468Z,14.46
2023-04-29T19:23:17.188Z,14.41
2023-04-29T19:25:44.227Z,14.40
2023-04-29T19:28:10.836Z,14.33
2023-04-29T19:30:37.615Z,14.29
2023-04-29T19:33:04.444Z,14.39
2023-04-29T19:35:31.157Z,14.44
2023-04-29T19:37:57.782Z,14.44
2023-04-29T19:40:24.410Z,14.42
2023-04-29T19:42:51.021Z,14.32
2023-04-29T19:45:17.676Z,14.17
2023-04-29T19:47:44.472Z,14.16
2023-04-29T19:50:11.177Z,14.11
2023-04-29T19:52:37.839Z,14.06
2023-04-29T19:55:05.020Z,14.03
2023-04-29T19:57:32.098Z,13.93
2023-04-29T19:59:58.818Z,13.89
2023-04-29T20:02:25.608Z,13.85
2023-04-29T20:04:52.294Z,13.87
2023-04-29T20:07:18.937Z,13.75
2023-04-29T20:09:45.888Z,13.48
2023-04-29T20:12:12.464Z,13.32
2023-04-29T20:14:39.213Z,13.22
2023-04-29T20:17:06.224Z,13.23
2023-04-29T20:19:32.957Z,13.27
2023-04-29T20:21:59.684Z,13.37
2023-04-29T20:24:27.285Z,13.46
2023-04-29T20:26:54.033Z,13.47
2023-04-29T20:29:21.356Z,13.47
2023-04-29T20:31:48.284Z,13.43
2023-04-29T20:34:14.956Z,13.53
2023-04-29T20:36:41.679Z,13.58
2023-04-29T20:39:09.022Z,13.61
2023-04-29T20:41:35.767Z,13.64
2023-04-29T20:44:03.168Z,13.59
2023-04-29T20:46:29.819Z,13.65
2023-04-29T20:48:56.637Z,13.68
2023-04-29T20:51:23.521Z,13.69
2023-04-29T20:53:50.150Z,13.70
2023-04-29T20:56:16.800Z,13.70
2023-04-29T20:58:43.408Z,13.66
2023-04-29T21:01:10.189Z,13.56
2023-04-29T21:03:36.959Z,13.48
2023-04-29T21:06:03.715Z,13.53
2023-04-29T21:08:30.321Z,13.55
2023-04-29T21:10:57.007Z,13.56
2023-04-29T21:13:23.781Z,13.72
2023-04-29T21:15:51.018Z,13.71
2023-04-29T21:18:17.653Z,13.70
2023-04-29T21:20:44.378Z,13.51
2023-04-29T21:23:10.929Z,13.51
2023-04-29T21:25:37.532Z,13.62
2023-04-29T21:28:04.664Z,13.69
2023-04-29T21:30:31.310Z,13.68
2023-04-29T21:32:58.091Z,13.74
2023-04-29T21:35:26.177Z,13.73
2023-04-29T21:37:52.879Z,13.63
2023-04-29T21:40:19.725Z,13.66
2023-04-29T21:42:47.026Z,13.61
2023-04-29T21:45:18.117Z,13.68
2023-04-29T21:47:45.090Z,13.60
2023-04-29T21:50:11.974Z,13.58
2023-04-29T21:52:38.622Z,13.54
2023-04-29T21:55:06.369Z,13.36
2023-04-29T21:57:43.512Z,13.15
2023-04-29T22:00:49.464Z,13.21
2023-04-29T22:03:16.210Z,13.02
2023-04-29T22:05:42.936Z,13.05
2023-04-29T22:08:09.572Z,13.09
2023-04-29T22:10:40.102Z,12.90
2023-04-29T22:13:07.458Z,12.88
2023-04-29T22:15:34.062Z,12.84
2023-04-29T22:18:00.922Z,12.95
2023-04-29T22:20:28.137Z,13.07
2023-04-29T22:22:54.965Z,13.11
2023-04-29T22:25:22.064Z,12.99
2023-04-29T22:27:49.780Z,12.90
2023-04-29T22:30:17.804Z,12.91
2023-04-29T22:32:44.812Z,12.91
2023-04-29T22:35:11.584Z,12.90
2023-04-29T22:37:38.251Z,12.85
2023-04-29T22:40:05.409Z,12.89
2023-04-29T22:42:31.997Z,12.85
2023-04-29T22:44:58.620Z,12.86
2023-04-29T22:47:25.175Z,12.86
2023-04-29T22:49:51.998Z,12.82
2023-04-29T22:52:18.854Z,12.90
2023-04-29T22:54:45.430Z,12.97
2023-04-29T22:57:12.076Z,12.97
2023-04-29T22:59:38.669Z,12.87
2023-04-29T23:02:05.861Z,12.73
2023-04-29T23:04:33.404Z,12.94
2023-04-29T23:07:00.045Z,12.95
2023-04-29T23:09:26.738Z,12.99
2023-04-29T23:11:53.340Z,13.01
2023-04-29T23:14:22.889Z,13.05
2023-04-29T23:16:51.078Z,12.98
2023-04-29T23:19:17.801Z,12.97
2023-04-29T23:21:44.438Z,12.87
2023-04-29T23:24:11.047Z,12.83
2023-04-29T23:26:37.609Z,12.71
2023-04-29T23:29:04.337Z,12.64
2023-04-29T23:31:30.946Z,12.60
2023-04-29T23:33:59.286Z,12.51
2023-04-29T23:36:26.079Z,12.36
2023-04-29T23:38:52.650Z,12.35
2023-04-29T23:41:19.270Z,12.26
2023-04-29T23:43:45.903Z,12.24
2023-04-29T23:46:12.508Z,12.12
2023-04-29T23:48:39.078Z,12.16
2023-04-29T23:51:05.754Z,12.16
2023-04-29T23:53:32.420Z,12.09
2023-04-29T23:55:59.123Z,12.01
2023-04-29T23:58:25.881Z,11.95
